sensor_id;sensor_type;location;lat;lon;timestamp;temperature;humidity
1205;DHT22;592;48.764;9.174;2022-09-09T00:01:51;16.40;99.90
1205;DHT22;592;48.764;9.174;2022-09-09T00:04:26;16.40;99.90
1205;DHT22;592;48.764;9.174;2022-09-09T00:07:01;16.40;99.90
1205;DHT22;592;48.764;9.174;2022-09-09T00:09:32;16.40;99.90
1205;DHT22;592;48.764;9.174;2022-09-09T00:12:09;16.40;99.90
1205;DHT22;592;48.764;9.174;2022-09-09T00:14:40;16.40;99.90
1205;DHT22;592;48.764;9.174;2022-09-09T00:17:12;16.40;99.90
1205;DHT22;592;48.764;9.174;2022-09-09T00:19:46;16.40;99.90
1205;DHT22;592;48.764;9.174;2022-09-09T00:22:19;16.50;99.90
1205;DHT22;592;48.764;9.174;2022-09-09T00:24:47;16.50;99.90
1205;DHT22;592;48.764;9.174;2022-09-09T00:27:24;16.40;99.90
1205;DHT22;592;48.764;9.174;2022-09-09T00:29:56;16.50;99.90
1205;DHT22;592;48.764;9.174;2022-09-09T00:32:29;16.50;99.90
1205;DHT22;592;48.764;9.174;2022-09-09T00:35:02;16.50;99.90
1205;DHT22;592;48.764;9.174;2022-09-09T00:37:31;16.40;99.90
1205;DHT22;592;48.764;9.174;2022-09-09T00:40:02;16.50;99.90
1205;DHT22;592;48.764;9.174;2022-09-09T00:42:40;16.50;99.90
1205;DHT22;592;48.764;9.174;2022-09-09T00:45:23;16.50;99.90
1205;DHT22;592;48.764;9.174;2022-09-09T00:47:56;16.50;99.90
1205;DHT22;592;48.764;9.174;2022-09-09T00:50:35;16.50;99.90
1205;DHT22;592;48.764;9.174;2022-09-09T00:53:17;16.60;99.90
1205;DHT22;592;48.764;9.174;2022-09-09T00:55:49;16.60;99.90
1205;DHT22;592;48.764;9.174;2022-09-09T00:58:17;16.70;99.90
1205;DHT22;592;48.764;9.174;2022-09-09T01:00:46;16.70;99.90
1205;DHT22;592;48.764;9.174;2022-09-09T01:03:25;16.70;99.90
1205;DHT22;592;48.764;9.174;2022-09-09T01:06:15;16.80;99.90
1205;DHT22;592;48.764;9.174;2022-09-09T01:09:04;16.80;99.90
1205;DHT22;592;48.764;9.174;2022-09-09T01:11:41;16.70;99.90
1205;DHT22;592;48.764;9.174;2022-09-09T01:14:19;16.80;99.90
1205;DHT22;592;48.764;9.174;2022-09-09T01:16:50;16.80;99.90
1205;DHT22;592;48.764;9.174;2022-09-09T01:19:27;16.80;99.90
1205;DHT22;592;48.764;9.174;2022-09-09T01:22:06;16.60;99.90
1205;DHT22;592;48.764;9.174;2022-09-09T01:24:40;16.50;99.90
1205;DHT22;592;48.764;9.174;2022-09-09T01:27:13;16.30;99.90
1205;DHT22;592;48.764;9.174;2022-09-09T01:29:41;16.20;99.90
1205;DHT22;592;48.764;9.174;2022-09-09T01:32:40;16.30;99.90
1205;DHT22;592;48.764;9.174;2022-09-09T01:35:11;16.40;99.90
1205;DHT22;592;48.764;9.174;2022-09-09T01:37:41;16.40;99.90
1205;DHT22;592;48.764;9.174;2022-09-09T01:40:08;16.50;99.90
1205;DHT22;592;48.764;9.174;2022-09-09T01:42:36;16.50;99.90
1205;DHT22;592;48.764;9.174;2022-09-09T01:45:04;16.50;99.90
1205;DHT22;592;48.764;9.174;2022-09-09T01:47:31;16.50;99.90
1205;DHT22;592;48.764;9.174;2022-09-09T01:49:58;16.40;99.90
1205;DHT22;592;48.764;9.174;2022-09-09T01:52:25;16.20;99.90
1205;DHT22;592;48.764;9.174;2022-09-09T01:54:52;16.00;99.90
1205;DHT22;592;48.764;9.174;2022-09-09T01:57:23;16.00;99.90
1205;DHT22;592;48.764;9.174;2022-09-09T02:00:03;16.00;99.90
1205;DHT22;592;48.764;9.174;2022-09-09T02:02:36;16.00;99.90
1205;DHT22;592;48.764;9.174;2022-09-09T02:05:18;15.90;99.90
1205;DHT22;592;48.764;9.174;2022-09-09T02:07:49;15.80;99.90
1205;DHT22;592;48.764;9.174;2022-09-09T02:10:19;15.90;99.90
1205;DHT22;592;48.764;9.174;2022-09-09T02:12:51;15.90;99.90
1205;DHT22;592;48.764;9.174;2022-09-09T02:15:28;16.00;99.90
1205;DHT22;592;48.764;9.174;2022-09-09T02:17:57;16.00;99.90
1205;DHT22;592;48.764;9.174;2022-09-09T02:20:26;16.00;99.90
1205;DHT22;592;48.764;9.174;2022-09-09T02:22:54;15.90;99.90
1205;DHT22;592;48.764;9.174;2022-09-09T02:25:24;15.90;99.90
1205;DHT22;592;48.764;9.174;2022-09-09T02:27:52;15.70;99.90
1205;DHT22;592;48.764;9.174;2022-09-09T02:30:19;15.70;99.90
1205;DHT22;592;48.764;9.174;2022-09-09T02:32:51;15.60;99.90
1205;DHT22;592;48.764;9.174;2022-09-09T02:35:23;15.40;99.90
1205;DHT22;592;48.764;9.174;2022-09-09T02:37:53;15.40;99.90
1205;DHT22;592;48.764;9.174;2022-09-09T02:40:21;15.40;99.90
1205;DHT22;592;48.764;9.174;2022-09-09T02:42:49;15.20;99.90
1205;DHT22;592;48.764;9.174;2022-09-09T02:45:18;15.30;99.90
1205;DHT22;592;48.764;9.174;2022-09-09T02:47:51;15.40;99.90
1205;DHT22;592;48.764;9.174;2022-09-09T02:50:24;15.40;99.90
1205;DHT22;592;48.764;9.174;2022-09-09T02:53:02;15.50;99.90
1205;DHT22;592;48.764;9.174;2022-09-09T02:55:39;15.40;99.90
1205;DHT22;592;48.764;9.174;2022-09-09T02:58:09;15.40;99.90
1205;DHT22;592;48.764;9.174;2022-09-09T03:00:38;15.40;99.90
1205;DHT22;592;48.764;9.174;2022-09-09T03:03:07;15.50;99.90
1205;DHT22;592;48.764;9.174;2022-09-09T03:05:35;15.50;99.90
1205;DHT22;592;48.764;9.174;2022-09-09T03:08:02;15.60;99.90
1205;DHT22;592;48.764;9.174;2022-09-09T03:10:29;15.60;99.90
1205;DHT22;592;48.764;9.174;2022-09-09T03:12:56;15.60;99.90
1205;DHT22;592;48.764;9.174;2022-09-09T03:15:23;15.60;99.90
1205;DHT22;592;48.764;9.174;2022-09-09T03:17:49;15.70;99.90
1205;DHT22;592;48.764;9.174;2022-09-09T03:20:17;15.70;99.90
1205;DHT22;592;48.764;9.174;2022-09-09T03:22:44;15.70;99.90
1205;DHT22;592;48.764;9.174;2022-09-09T03:25:11;15.70;99.90
1205;DHT22;592;48.764;9.174;2022-09-09T03:27:38;15.70;99.90
1205;DHT22;592;48.764;9.174;2022-09-09T03:30:06;15.70;99.90
1205;DHT22;592;48.764;9.174;2022-09-09T03:32:33;15.70;99.90
1205;DHT22;592;48.764;9.174;2022-09-09T03:34:59;15.80;99.90
1205;DHT22;592;48.764;9.174;2022-09-09T03:37:27;15.80;99.90
1205;DHT22;592;48.764;9.174;2022-09-09T03:39:54;15.80;99.90
1205;DHT22;592;48.764;9.174;2022-09-09T03:42:21;15.80;99.90
1205;DHT22;592;48.764;9.174;2022-09-09T03:44:48;15.90;99.90
1205;DHT22;592;48.764;9.174;2022-09-09T03:47:16;15.90;99.90
1205;DHT22;592;48.764;9.174;2022-09-09T03:49:44;15.90;99.90
1205;DHT22;592;48.764;9.174;2022-09-09T03:52:11;15.90;99.90
1205;DHT22;592;48.764;9.174;2022-09-09T03:54:39;16.00;99.90
1205;DHT22;592;48.764;9.174;2022-09-09T03:57:07;15.90;99.90
1205;DHT22;592;48.764;9.174;2022-09-09T03:59:34;15.90;99.90
1205;DHT22;592;48.764;9.174;2022-09-09T04:02:01;16.00;99.90
1205;DHT22;592;48.764;9.174;2022-09-09T04:04:28;16.00;99.90
1205;DHT22;592;48.764;9.174;2022-09-09T04:06:54;15.90;99.90
1205;DHT22;592;48.764;9.174;2022-09-09T04:09:21;16.00;99.90
1205;DHT22;592;48.764;9.174;2022-09-09T04:11:49;16.00;99.90
1205;DHT22;592;48.764;9.174;2022-09-09T04:14:17;16.00;99.90
1205;DHT22;592;48.764;9.174;2022-09-09T04:16:43;16.00;99.90
1205;DHT22;592;48.764;9.174;2022-09-09T04:19:11;16.00;99.90
1205;DHT22;592;48.764;9.174;2022-09-09T04:21:38;15.90;99.90
1205;DHT22;592;48.764;9.174;2022-09-09T04:24:06;16.00;99.90
1205;DHT22;592;48.764;9.174;2022-09-09T04:26:33;16.00;99.90
1205;DHT22;592;48.764;9.174;2022-09-09T04:29:01;16.00;99.90
1205;DHT22;592;48.764;9.174;2022-09-09T04:31:28;16.00;99.90
1205;DHT22;592;48.764;9.174;2022-09-09T04:33:55;16.00;99.90
1205;DHT22;592;48.764;9.174;2022-09-09T04:36:22;16.00;99.90
1205;DHT22;592;48.764;9.174;2022-09-09T04:38:48;15.90;99.90
1205;DHT22;592;48.764;9.174;2022-09-09T04:41:15;16.00;99.90
1205;DHT22;592;48.764;9.174;2022-09-09T04:43:43;15.90;99.90
1205;DHT22;592;48.764;9.174;2022-09-09T04:46:11;15.90;99.90
1205;DHT22;592;48.764;9.174;2022-09-09T04:48:38;15.90;99.90
1205;DHT22;592;48.764;9.174;2022-09-09T04:51:08;15.90;99.90
1205;DHT22;592;48.764;9.174;2022-09-09T04:53:35;15.80;99.90
1205;DHT22;592;48.764;9.174;2022-09-09T04:56:04;15.80;99.90
1205;DHT22;592;48.764;9.174;2022-09-09T04:58:32;15.70;99.90
1205;DHT22;592;48.764;9.174;2022-09-09T05:01:06;15.70;99.90
1205;DHT22;592;48.764;9.174;2022-09-09T05:03:35;15.70;99.90
1205;DHT22;592;48.764;9.174;2022-09-09T05:06:06;15.70;99.90
1205;DHT22;592;48.764;9.174;2022-09-09T05:08:34;15.70;99.90
1205;DHT22;592;48.764;9.174;2022-09-09T05:11:00;15.60;99.90
1205;DHT22;592;48.764;9.174;2022-09-09T05:13:28;15.70;99.90
1205;DHT22;592;48.764;9.174;2022-09-09T05:15:56;15.80;99.90
1205;DHT22;592;48.764;9.174;2022-09-09T05:18:24;15.80;99.90
1205;DHT22;592;48.764;9.174;2022-09-09T05:20:52;15.90;99.90
1205;DHT22;592;48.764;9.174;2022-09-09T05:23:18;15.90;99.90
1205;DHT22;592;48.764;9.174;2022-09-09T05:25:55;15.90;99.90
1205;DHT22;592;48.764;9.174;2022-09-09T05:28:22;15.90;99.90
1205;DHT22;592;48.764;9.174;2022-09-09T05:30:55;15.90;99.90
1205;DHT22;592;48.764;9.174;2022-09-09T05:33:23;16.00;99.90
1205;DHT22;592;48.764;9.174;2022-09-09T05:35:56;16.00;99.90
1205;DHT22;592;48.764;9.174;2022-09-09T05:38:23;16.00;99.90
1205;DHT22;592;48.764;9.174;2022-09-09T05:40:51;16.00;99.90
1205;DHT22;592;48.764;9.174;2022-09-09T05:43:17;16.00;99.90
1205;DHT22;592;48.764;9.174;2022-09-09T05:45:45;16.00;99.90
1205;DHT22;592;48.764;9.174;2022-09-09T05:48:12;16.10;99.90
1205;DHT22;592;48.764;9.174;2022-09-09T05:50:38;16.20;99.90
1205;DHT22;592;48.764;9.174;2022-09-09T05:53:06;16.20;99.90
1205;DHT22;592;48.764;9.174;2022-09-09T05:55:33;16.20;99.90
1205;DHT22;592;48.764;9.174;2022-09-09T05:58:00;16.30;99.90
1205;DHT22;592;48.764;9.174;2022-09-09T06:00:26;16.30;99.90
1205;DHT22;592;48.764;9.174;2022-09-09T06:02:53;16.40;99.90
1205;DHT22;592;48.764;9.174;2022-09-09T06:05:20;16.50;99.90
1205;DHT22;592;48.764;9.174;2022-09-09T06:07:48;16.50;99.90
1205;DHT22;592;48.764;9.174;2022-09-09T06:10:19;16.50;99.90
1205;DHT22;592;48.764;9.174;2022-09-09T06:12:46;16.60;99.90
1205;DHT22;592;48.764;9.174;2022-09-09T06:15:13;16.60;99.90
1205;DHT22;592;48.764;9.174;2022-09-09T06:17:39;16.70;99.90
1205;DHT22;592;48.764;9.174;2022-09-09T06:20:07;16.70;99.90
1205;DHT22;592;48.764;9.174;2022-09-09T06:22:35;16.80;99.90
1205;DHT22;592;48.764;9.174;2022-09-09T06:25:02;16.70;99.90
1205;DHT22;592;48.764;9.174;2022-09-09T06:27:30;16.70;99.90
1205;DHT22;592;48.764;9.174;2022-09-09T06:29:57;16.70;99.90
1205;DHT22;592;48.764;9.174;2022-09-09T06:32:24;16.80;99.90
1205;DHT22;592;48.764;9.174;2022-09-09T06:34:52;16.80;99.90
1205;DHT22;592;48.764;9.174;2022-09-09T06:37:19;16.90;99.90
1205;DHT22;592;48.764;9.174;2022-09-09T06:39:46;16.90;99.90
1205;DHT22;592;48.764;9.174;2022-09-09T06:42:13;17.10;99.90
1205;DHT22;592;48.764;9.174;2022-09-09T06:44:42;17.20;99.90
1205;DHT22;592;48.764;9.174;2022-09-09T06:47:09;17.10;99.90
1205;DHT22;592;48.764;9.174;2022-09-09T06:49:36;17.20;99.90
1205;DHT22;592;48.764;9.174;2022-09-09T06:52:03;17.10;99.90
1205;DHT22;592;48.764;9.174;2022-09-09T06:54:29;17.20;99.90
1205;DHT22;592;48.764;9.174;2022-09-09T06:56:56;17.30;99.90
1205;DHT22;592;48.764;9.174;2022-09-09T06:59:23;17.40;99.90
1205;DHT22;592;48.764;9.174;2022-09-09T07:01:52;17.40;99.90
1205;DHT22;592;48.764;9.174;2022-09-09T07:04:20;17.50;99.90
1205;DHT22;592;48.764;9.174;2022-09-09T07:06:46;17.60;99.90
1205;DHT22;592;48.764;9.174;2022-09-09T07:09:14;17.70;99.90
1205;DHT22;592;48.764;9.174;2022-09-09T07:11:43;17.70;99.90
1205;DHT22;592;48.764;9.174;2022-09-09T07:14:10;17.80;99.90
1205;DHT22;592;48.764;9.174;2022-09-09T07:16:39;17.70;99.90
1205;DHT22;592;48.764;9.174;2022-09-09T07:19:09;17.80;99.90
1205;DHT22;592;48.764;9.174;2022-09-09T07:21:36;17.80;99.90
1205;DHT22;592;48.764;9.174;2022-09-09T07:24:03;17.80;99.90
1205;DHT22;592;48.764;9.174;2022-09-09T07:26:33;17.80;99.90
1205;DHT22;592;48.764;9.174;2022-09-09T07:29:00;17.90;99.90
1205;DHT22;592;48.764;9.174;2022-09-09T07:31:29;18.00;99.90
1205;DHT22;592;48.764;9.174;2022-09-09T07:33:57;18.20;99.90
1205;DHT22;592;48.764;9.174;2022-09-09T07:36:27;18.20;99.90
1205;DHT22;592;48.764;9.174;2022-09-09T07:38:56;18.30;99.90
1205;DHT22;592;48.764;9.174;2022-09-09T07:41:25;18.40;99.90
1205;DHT22;592;48.764;9.174;2022-09-09T07:43:52;18.50;99.90
1205;DHT22;592;48.764;9.174;2022-09-09T07:46:22;18.60;99.90
1205;DHT22;592;48.764;9.174;2022-09-09T07:48:51;18.70;99.90
1205;DHT22;592;48.764;9.174;2022-09-09T07:51:20;18.80;99.90
1205;DHT22;592;48.764;9.174;2022-09-09T07:53:52;18.80;99.90
1205;DHT22;592;48.764;9.174;2022-09-09T07:56:20;18.60;99.90
1205;DHT22;592;48.764;9.174;2022-09-09T07:58:49;18.70;99.90
1205;DHT22;592;48.764;9.174;2022-09-09T08:01:18;18.80;99.90
1205;DHT22;592;48.764;9.174;2022-09-09T08:03:45;19.00;99.90
1205;DHT22;592;48.764;9.174;2022-09-09T08:06:13;19.20;99.90
1205;DHT22;592;48.764;9.174;2022-09-09T08:08:40;19.30;99.90
1205;DHT22;592;48.764;9.174;2022-09-09T08:11:12;19.30;99.90
1205;DHT22;592;48.764;9.174;2022-09-09T08:13:40;19.30;99.90
1205;DHT22;592;48.764;9.174;2022-09-09T08:16:08;19.40;99.90
1205;DHT22;592;48.764;9.174;2022-09-09T08:18:35;19.30;99.90
1205;DHT22;592;48.764;9.174;2022-09-09T08:21:11;19.30;99.90
1205;DHT22;592;48.764;9.174;2022-09-09T08:23:39;19.20;99.90
1205;DHT22;592;48.764;9.174;2022-09-09T08:26:09;19.30;99.90
1205;DHT22;592;48.764;9.174;2022-09-09T08:28:37;19.40;99.90
1205;DHT22;592;48.764;9.174;2022-09-09T08:31:09;19.50;99.90
1205;DHT22;592;48.764;9.174;2022-09-09T08:33:37;19.60;99.90
1205;DHT22;592;48.764;9.174;2022-09-09T08:36:05;19.80;99.90
1205;DHT22;592;48.764;9.174;2022-09-09T08:38:32;19.90;99.90
1205;DHT22;592;48.764;9.174;2022-09-09T08:41:12;19.80;99.90
1205;DHT22;592;48.764;9.174;2022-09-09T08:43:46;19.90;99.90
1205;DHT22;592;48.764;9.174;2022-09-09T08:46:18;19.70;99.90
1205;DHT22;592;48.764;9.174;2022-09-09T08:48:52;19.80;99.90
1205;DHT22;592;48.764;9.174;2022-09-09T08:51:25;20.00;99.90
1205;DHT22;592;48.764;9.174;2022-09-09T08:53:54;20.10;99.90
1205;DHT22;592;48.764;9.174;2022-09-09T08:56:22;20.10;99.90
1205;DHT22;592;48.764;9.174;2022-09-09T08:58:52;19.90;99.90
1205;DHT22;592;48.764;9.174;2022-09-09T09:01:28;20.00;99.90
1205;DHT22;592;48.764;9.174;2022-09-09T09:04:04;20.30;99.90
1205;DHT22;592;48.764;9.174;2022-09-09T09:06:45;20.30;99.90
1205;DHT22;592;48.764;9.174;2022-09-09T09:09:19;20.30;99.90
1205;DHT22;592;48.764;9.174;2022-09-09T09:11:49;20.30;99.90
1205;DHT22;592;48.764;9.174;2022-09-09T09:14:21;20.30;99.90
1205;DHT22;592;48.764;9.174;2022-09-09T09:16:51;20.40;99.90
1205;DHT22;592;48.764;9.174;2022-09-09T09:19:19;20.40;99.90
1205;DHT22;592;48.764;9.174;2022-09-09T09:21:51;20.40;99.90
1205;DHT22;592;48.764;9.174;2022-09-09T09:24:20;20.50;99.90
1205;DHT22;592;48.764;9.174;2022-09-09T09:26:48;20.40;99.90
1205;DHT22;592;48.764;9.174;2022-09-09T09:29:19;20.30;99.90
1205;DHT22;592;48.764;9.174;2022-09-09T09:31:52;20.10;99.90
1205;DHT22;592;48.764;9.174;2022-09-09T09:34:21;19.80;99.90
1205;DHT22;592;48.764;9.174;2022-09-09T09:36:53;19.70;99.90
1205;DHT22;592;48.764;9.174;2022-09-09T09:39:26;19.40;99.90
1205;DHT22;592;48.764;9.174;2022-09-09T09:41:53;19.40;99.90
1205;DHT22;592;48.764;9.174;2022-09-09T09:44:26;19.40;99.90
1205;DHT22;592;48.764;9.174;2022-09-09T09:47:04;19.50;99.90
1205;DHT22;592;48.764;9.174;2022-09-09T09:49:31;19.50;99.90
1205;DHT22;592;48.764;9.174;2022-09-09T09:52:00;19.60;99.90
1205;DHT22;592;48.764;9.174;2022-09-09T09:54:28;19.60;99.90
1205;DHT22;592;48.764;9.174;2022-09-09T09:56:56;19.80;99.90
1205;DHT22;592;48.764;9.174;2022-09-09T09:59:36;20.00;99.90
1205;DHT22;592;48.764;9.174;2022-09-09T10:02:15;20.10;99.90
1205;DHT22;592;48.764;9.174;2022-09-09T10:04:42;20.20;99.90
1205;DHT22;592;48.764;9.174;2022-09-09T10:07:11;20.40;99.90
1205;DHT22;592;48.764;9.174;2022-09-09T10:09:37;20.60;99.90
1205;DHT22;592;48.764;9.174;2022-09-09T10:12:12;20.70;99.90
1205;DHT22;592;48.764;9.174;2022-09-09T10:14:49;20.70;99.90
1205;DHT22;592;48.764;9.174;2022-09-09T10:17:23;20.80;99.90
1205;DHT22;592;48.764;9.174;2022-09-09T10:20:12;20.80;99.90
1205;DHT22;592;48.764;9.174;2022-09-09T10:22:45;20.80;99.90
1205;DHT22;592;48.764;9.174;2022-09-09T10:25:31;20.90;99.90
1205;DHT22;592;48.764;9.174;2022-09-09T10:28:17;21.10;99.90
1205;DHT22;592;48.764;9.174;2022-09-09T10:30:54;21.20;99.90
1205;DHT22;592;48.764;9.174;2022-09-09T10:33:30;21.40;99.90
1205;DHT22;592;48.764;9.174;2022-09-09T10:36:06;21.40;99.90
1205;DHT22;592;48.764;9.174;2022-09-09T10:38:39;21.40;99.90
1205;DHT22;592;48.764;9.174;2022-09-09T10:41:16;21.40;99.90
1205;DHT22;592;48.764;9.174;2022-09-09T10:44:03;21.60;99.90
1205;DHT22;592;48.764;9.174;2022-09-09T10:46:45;21.90;99.90
1205;DHT22;592;48.764;9.174;2022-09-09T10:49:23;21.90;99.90
1205;DHT22;592;48.764;9.174;2022-09-09T10:52:00;21.70;99.90
1205;DHT22;592;48.764;9.174;2022-09-09T10:54:45;21.80;99.90
1205;DHT22;592;48.764;9.174;2022-09-09T10:57:25;22.00;99.90
1205;DHT22;592;48.764;9.174;2022-09-09T10:59:57;22.20;99.90
1205;DHT22;592;48.764;9.174;2022-09-09T11:02:28;22.40;99.90
1205;DHT22;592;48.764;9.174;2022-09-09T11:04:59;22.40;99.90
1205;DHT22;592;48.764;9.174;2022-09-09T11:07:33;22.50;99.90
1205;DHT22;592;48.764;9.174;2022-09-09T11:10:06;22.50;99.90
1205;DHT22;592;48.764;9.174;2022-09-09T11:12:43;22.40;99.90
1205;DHT22;592;48.764;9.174;2022-09-09T11:15:17;22.30;99.90
1205;DHT22;592;48.764;9.174;2022-09-09T11:17:50;22.20;99.90
1205;DHT22;592;48.764;9.174;2022-09-09T11:20:20;22.00;99.90
1205;DHT22;592;48.764;9.174;2022-09-09T11:22:50;21.80;99.90
1205;DHT22;592;48.764;9.174;2022-09-09T11:25:22;21.40;99.90
1205;DHT22;592;48.764;9.174;2022-09-09T11:28:07;20.80;99.90
1205;DHT22;592;48.764;9.174;2022-09-09T11:30:46;20.50;99.90
1205;DHT22;592;48.764;9.174;2022-09-09T11:33:31;20.30;99.90
1205;DHT22;592;48.764;9.174;2022-09-09T11:36:13;20.40;99.90
1205;DHT22;592;48.764;9.174;2022-09-09T11:38:45;20.30;99.90
1205;DHT22;592;48.764;9.174;2022-09-09T11:41:13;20.30;99.90
1205;DHT22;592;48.764;9.174;2022-09-09T11:43:42;20.20;99.90
1205;DHT22;592;48.764;9.174;2022-09-09T11:46:10;20.10;99.90
1205;DHT22;592;48.764;9.174;2022-09-09T11:48:41;20.10;99.90
1205;DHT22;592;48.764;9.174;2022-09-09T11:51:11;20.00;99.90
1205;DHT22;592;48.764;9.174;2022-09-09T11:53:48;19.80;99.90
1205;DHT22;592;48.764;9.174;2022-09-09T11:56:25;19.80;99.90
1205;DHT22;592;48.764;9.174;2022-09-09T11:58:58;19.80;99.90
1205;DHT22;592;48.764;9.174;2022-09-09T12:01:44;19.90;99.90
1205;DHT22;592;48.764;9.174;2022-09-09T12:04:21;20.00;99.90
1205;DHT22;592;48.764;9.174;2022-09-09T12:06:57;20.30;99.90
1205;DHT22;592;48.764;9.174;2022-09-09T12:09:32;20.50;99.90
1205;DHT22;592;48.764;9.174;2022-09-09T12:12:16;20.60;99.90
1205;DHT22;592;48.764;9.174;2022-09-09T12:14:56;20.50;99.90
1205;DHT22;592;48.764;9.174;2022-09-09T12:17:26;20.50;99.90
1205;DHT22;592;48.764;9.174;2022-09-09T12:20:08;20.60;99.90
1205;DHT22;592;48.764;9.174;2022-09-09T12:22:47;20.80;99.90
1205;DHT22;592;48.764;9.174;2022-09-09T12:25:22;20.70;99.90
1205;DHT22;592;48.764;9.174;2022-09-09T12:28:02;20.40;99.90
1205;DHT22;592;48.764;9.174;2022-09-09T12:30:35;20.60;99.90
1205;DHT22;592;48.764;9.174;2022-09-09T12:33:10;20.80;99.90
1205;DHT22;592;48.764;9.174;2022-09-09T12:35:39;20.70;99.20
1205;DHT22;592;48.764;9.174;2022-09-09T12:38:12;20.70;99.10
1205;DHT22;592;48.764;9.174;2022-09-09T12:40:40;20.80;98.90
1205;DHT22;592;48.764;9.174;2022-09-09T12:43:17;21.00;98.50
1205;DHT22;592;48.764;9.174;2022-09-09T12:45:44;20.90;98.50
1205;DHT22;592;48.764;9.174;2022-09-09T12:48:12;21.00;99.30
1205;DHT22;592;48.764;9.174;2022-09-09T12:50:46;20.70;99.30
1205;DHT22;592;48.764;9.174;2022-09-09T12:53:21;20.70;99.60
1205;DHT22;592;48.764;9.174;2022-09-09T12:55:51;20.90;99.80
1205;DHT22;592;48.764;9.174;2022-09-09T12:58:19;20.70;99.90
1205;DHT22;592;48.764;9.174;2022-09-09T13:00:49;20.70;99.90
1205;DHT22;592;48.764;9.174;2022-09-09T13:03:18;20.70;99.90
1205;DHT22;592;48.764;9.174;2022-09-09T13:05:48;20.80;99.90
1205;DHT22;592;48.764;9.174;2022-09-09T13:08:16;20.60;99.90
1205;DHT22;592;48.764;9.174;2022-09-09T13:10:47;20.60;99.90
1205;DHT22;592;48.764;9.174;2022-09-09T13:13:16;20.70;99.90
1205;DHT22;592;48.764;9.174;2022-09-09T13:15:49;20.90;99.90
1205;DHT22;592;48.764;9.174;2022-09-09T13:18:21;21.20;99.80
1205;DHT22;592;48.764;9.174;2022-09-09T13:20:50;21.30;99.40
1205;DHT22;592;48.764;9.174;2022-09-09T13:23:19;21.70;99.30
1205;DHT22;592;48.764;9.174;2022-09-09T13:25:54;21.80;99.90
1205;DHT22;592;48.764;9.174;2022-09-09T13:28:23;22.30;99.30
1205;DHT22;592;48.764;9.174;2022-09-09T13:30:58;22.40;99.10
1205;DHT22;592;48.764;9.174;2022-09-09T13:33:32;22.30;99.40
1205;DHT22;592;48.764;9.174;2022-09-09T13:36:03;22.60;99.40
1205;DHT22;592;48.764;9.174;2022-09-09T13:38:33;22.90;98.20
1205;DHT22;592;48.764;9.174;2022-09-09T13:41:04;23.20;96.40
1205;DHT22;592;48.764;9.174;2022-09-09T13:43:34;23.20;96.00
1205;DHT22;592;48.764;9.174;2022-09-09T13:46:03;22.80;95.80
1205;DHT22;592;48.764;9.174;2022-09-09T13:48:30;22.60;95.60
1205;DHT22;592;48.764;9.174;2022-09-09T13:51:01;23.10;95.90
1205;DHT22;592;48.764;9.174;2022-09-09T13:53:30;23.50;95.50
1205;DHT22;592;48.764;9.174;2022-09-09T13:55:57;23.60;95.90
1205;DHT22;592;48.764;9.174;2022-09-09T13:58:25;23.20;95.60
1205;DHT22;592;48.764;9.174;2022-09-09T14:00:52;23.90;95.00
1205;DHT22;592;48.764;9.174;2022-09-09T14:03:20;24.80;94.70
1205;DHT22;592;48.764;9.174;2022-09-09T14:05:47;25.20;93.60
1205;DHT22;592;48.764;9.174;2022-09-09T14:08:21;25.40;93.10
1205;DHT22;592;48.764;9.174;2022-09-09T14:10:49;26.10;92.90
1205;DHT22;592;48.764;9.174;2022-09-09T14:13:15;26.70;91.70
1205;DHT22;592;48.764;9.174;2022-09-09T14:15:42;26.60;90.10
1205;DHT22;592;48.764;9.174;2022-09-09T14:18:11;26.70;90.80
1205;DHT22;592;48.764;9.174;2022-09-09T14:20:38;26.90;91.00
1205;DHT22;592;48.764;9.174;2022-09-09T14:23:05;27.10;89.70
1205;DHT22;592;48.764;9.174;2022-09-09T14:25:33;27.30;88.60
1205;DHT22;592;48.764;9.174;2022-09-09T14:28:00;26.50;88.80
1205;DHT22;592;48.764;9.174;2022-09-09T14:30:27;25.70;89.10
1205;DHT22;592;48.764;9.174;2022-09-09T14:32:54;25.50;90.20
1205;DHT22;592;48.764;9.174;2022-09-09T14:35:21;26.70;90.10
1205;DHT22;592;48.764;9.174;2022-09-09T14:37:47;27.10;85.20
1205;DHT22;592;48.764;9.174;2022-09-09T14:40:14;26.00;87.10
1205;DHT22;592;48.764;9.174;2022-09-09T14:42:43;25.60;86.80
1205;DHT22;592;48.764;9.174;2022-09-09T14:45:11;25.50;89.80
1205;DHT22;592;48.764;9.174;2022-09-09T14:47:37;27.00;87.30
1205;DHT22;592;48.764;9.174;2022-09-09T14:50:05;28.60;83.60
1205;DHT22;592;48.764;9.174;2022-09-09T14:52:33;29.90;81.90
1205;DHT22;592;48.764;9.174;2022-09-09T14:55:00;29.60;76.40
1205;DHT22;592;48.764;9.174;2022-09-09T14:57:27;28.40;79.40
1205;DHT22;592;48.764;9.174;2022-09-09T14:59:55;28.00;79.00
1205;DHT22;592;48.764;9.174;2022-09-09T15:02:22;27.20;79.70
1205;DHT22;592;48.764;9.174;2022-09-09T15:04:49;28.00;79.30
1205;DHT22;592;48.764;9.174;2022-09-09T15:07:16;28.40;79.90
1205;DHT22;592;48.764;9.174;2022-09-09T15:09:44;26.60;79.70
1205;DHT22;592;48.764;9.174;2022-09-09T15:12:13;27.30;80.00
1205;DHT22;592;48.764;9.174;2022-09-09T15:14:40;25.00;81.80
1205;DHT22;592;48.764;9.174;2022-09-09T15:17:09;24.10;84.40
1205;DHT22;592;48.764;9.174;2022-09-09T15:19:36;24.00;86.80
1205;DHT22;592;48.764;9.174;2022-09-09T15:22:03;23.90;87.20
1205;DHT22;592;48.764;9.174;2022-09-09T15:24:30;23.70;87.30
1205;DHT22;592;48.764;9.174;2022-09-09T15:26:58;23.80;88.10
1205;DHT22;592;48.764;9.174;2022-09-09T15:29:25;24.10;89.40
1205;DHT22;592;48.764;9.174;2022-09-09T15:31:53;23.80;88.00
1205;DHT22;592;48.764;9.174;2022-09-09T15:34:22;23.40;88.30
1205;DHT22;592;48.764;9.174;2022-09-09T15:36:48;23.00;89.50
1205;DHT22;592;48.764;9.174;2022-09-09T15:39:17;23.00;89.70
1205;DHT22;592;48.764;9.174;2022-09-09T15:41:44;22.90;90.60
1205;DHT22;592;48.764;9.174;2022-09-09T15:44:12;22.90;90.30
1205;DHT22;592;48.764;9.174;2022-09-09T15:46:40;22.70;90.60
1205;DHT22;592;48.764;9.174;2022-09-09T15:49:09;22.30;90.80
1205;DHT22;592;48.764;9.174;2022-09-09T15:51:39;22.10;90.90
1205;DHT22;592;48.764;9.174;2022-09-09T15:54:06;21.90;91.00
1205;DHT22;592;48.764;9.174;2022-09-09T15:56:33;21.90;91.10
1205;DHT22;592;48.764;9.174;2022-09-09T15:59:00;21.60;90.90
1205;DHT22;592;48.764;9.174;2022-09-09T16:01:29;21.60;91.30
1205;DHT22;592;48.764;9.174;2022-09-09T16:03:57;21.60;91.10
1205;DHT22;592;48.764;9.174;2022-09-09T16:06:25;21.60;91.40
1205;DHT22;592;48.764;9.174;2022-09-09T16:08:56;21.60;91.30
1205;DHT22;592;48.764;9.174;2022-09-09T16:11:24;21.60;90.80
1205;DHT22;592;48.764;9.174;2022-09-09T16:13:52;21.50;91.40
1205;DHT22;592;48.764;9.174;2022-09-09T16:16:22;21.40;91.20
1205;DHT22;592;48.764;9.174;2022-09-09T16:18:51;21.30;91.70
1205;DHT22;592;48.764;9.174;2022-09-09T16:21:20;21.30;91.60
1205;DHT22;592;48.764;9.174;2022-09-09T16:23:49;21.20;91.80
1205;DHT22;592;48.764;9.174;2022-09-09T16:26:18;21.10;91.80
1205;DHT22;592;48.764;9.174;2022-09-09T16:28:45;20.90;92.00
1205;DHT22;592;48.764;9.174;2022-09-09T16:31:15;20.80;92.20
1205;DHT22;592;48.764;9.174;2022-09-09T16:33:42;20.80;92.60
1205;DHT22;592;48.764;9.174;2022-09-09T16:36:11;20.80;92.80
1205;DHT22;592;48.764;9.174;2022-09-09T16:38:38;20.70;93.20